Time;durP1;ratioP1;P1;durP2;ratioP2;P2;SDS_P1;SDS_P2;PMS_P1;PMS_P2;Temp;Humidity;BMP_temperature;BMP_pressure;BME280_temperature;BME280_humidity;BME280_pressure;Samples;Min_cycle;Max_cycle;Signal;HPM_P1;HPM_P2
2023/03/27 00:02:13;;;;;;;;;;;2.70;99.90;;;;;;5053947;28;19921;-70
2023/03/27 00:04:40;;;;;;;;;;;2.80;99.90;;;;;;4982274;28;256943;-70
2023/03/27 00:07:06;;;;;;;;;;;2.80;99.90;;;;;;5057706;28;19920;-71
2023/03/27 00:09:32;;;;;;;;;;;2.80;99.90;;;;;;5000835;28;206408;-71
2023/03/27 00:11:59;;;;;;;;;;;2.80;99.90;;;;;;5047412;28;19931;-71
2023/03/27 00:14:25;;;;;;;;;;;2.80;99.90;;;;;;5016131;28;208987;-71
2023/03/27 00:16:51;;;;;;;;;;;2.80;99.90;;;;;;5068712;28;19924;-71
2023/03/27 00:19:17;;;;;;;;;;;2.80;99.90;;;;;;5000711;28;206896;-71
2023/03/27 00:21:43;;;;;;;;;;;2.80;99.90;;;;;;5048569;28;19921;-71
2023/03/27 00:24:10;;;;;;;;;;;2.70;99.90;;;;;;5016637;28;207003;-71
2023/03/27 00:26:39;;;;;;;;;;;2.70;99.90;;;;;;5046770;28;19920;-71
2023/03/27 00:29:05;;;;;;;;;;;2.70;99.90;;;;;;5008337;28;210508;-71
2023/03/27 00:31:32;;;;;;;;;;;2.70;99.90;;;;;;5055424;28;19924;-71
2023/03/27 00:33:58;;;;;;;;;;;2.70;99.90;;;;;;5002476;28;225573;-71
2023/03/27 00:36:24;;;;;;;;;;;2.60;99.90;;;;;;5046411;28;19916;-71
2023/03/27 00:38:52;;;;;;;;;;;2.70;99.90;;;;;;5017617;28;207723;-71
2023/03/27 00:41:18;;;;;;;;;;;2.60;99.90;;;;;;5072879;28;19928;-71
2023/03/27 00:43:44;;;;;;;;;;;2.70;99.90;;;;;;5033545;28;210468;-70
2023/03/27 00:46:13;;;;;;;;;;;2.60;99.90;;;;;;5039995;28;19929;-71
2023/03/27 00:48:40;;;;;;;;;;;2.60;99.90;;;;;;5049651;28;208836;-70
2023/03/27 00:51:07;;;;;;;;;;;2.60;99.90;;;;;;5033517;28;207805;-71
2023/03/27 00:53:33;;;;;;;;;;;2.60;99.90;;;;;;5062424;28;19925;-71
2023/03/27 00:56:01;;;;;;;;;;;2.60;99.90;;;;;;4993670;28;207291;-71
2023/03/27 00:58:32;;;;;;;;;;;2.60;99.90;;;;;;5060903;28;20385;-72
2023/03/27 01:00:58;;;;;;;;;;;2.60;99.90;;;;;;4976986;28;209552;-73
2023/03/27 01:03:26;;;;;;;;;;;2.60;99.90;;;;;;5063671;28;20386;-71
2023/03/27 01:05:53;;;;;;;;;;;2.50;99.90;;;;;;5007801;28;214079;-72
2023/03/27 01:08:19;;;;;;;;;;;2.50;99.90;;;;;;5060056;28;19952;-72
2023/03/27 01:10:57;;;;;;;;;;;2.40;99.90;;;;;;4994545;28;205720;-72
2023/03/27 01:13:42;;;;;;;;;;;2.30;99.90;;;;;;5059741;28;19927;-71
2023/03/27 01:16:08;;;;;;;;;;;2.40;99.90;;;;;;5007392;28;207368;-71
2023/03/27 01:18:43;;;;;;;;;;;2.50;99.90;;;;;;5077499;28;19929;-72
2023/03/27 01:21:39;;;;;;;;;;;2.50;99.90;;;;;;5001630;28;89513;-72
2023/03/27 01:24:22;;;;;;;;;;;2.50;99.90;;;;;;5003506;28;209878;-72
2023/03/27 01:27:00;;;;;;;;;;;2.50;99.90;;;;;;5049037;28;19928;-72
2023/03/27 01:29:45;;;;;;;;;;;2.50;99.90;;;;;;5017408;28;206583;-72
2023/03/27 01:32:43;;;;;;;;;;;2.40;99.90;;;;;;5065716;28;20322;-72
2023/03/27 01:35:18;;;;;;;;;;;2.40;99.90;;;;;;4976069;28;208947;-72
2023/03/27 01:37:56;;;;;;;;;;;2.40;99.90;;;;;;5057332;28;19925;-72
2023/03/27 01:40:22;;;;;;;;;;;2.40;99.90;;;;;;5015069;28;206661;-72
2023/03/27 01:42:51;;;;;;;;;;;2.50;99.90;;;;;;5065362;28;20042;-72
2023/03/27 01:45:17;;;;;;;;;;;2.40;99.90;;;;;;4999902;28;210200;-72
2023/03/27 01:47:48;;;;;;;;;;;2.50;99.90;;;;;;5059959;28;19928;-72
2023/03/27 01:50:18;;;;;;;;;;;2.40;99.90;;;;;;5022680;28;212476;-73
2023/03/27 01:52:48;;;;;;;;;;;2.40;99.90;;;;;;5054094;28;19921;-72
2023/03/27 01:55:15;;;;;;;;;;;2.40;99.90;;;;;;5017006;28;221607;-72
2023/03/27 01:57:44;;;;;;;;;;;2.40;99.90;;;;;;5060382;28;19924;-72
2023/03/27 02:00:16;;;;;;;;;;;2.30;99.90;;;;;;5012014;28;205717;-73
2023/03/27 02:02:48;;;;;;;;;;;2.30;99.90;;;;;;5068438;28;19920;-73
2023/03/27 02:05:17;;;;;;;;;;;2.30;99.90;;;;;;4981401;28;205692;-72
2023/03/27 02:07:50;;;;;;;;;;;2.30;99.90;;;;;;5057637;28;19924;-73
2023/03/27 02:10:19;;;;;;;;;;;2.30;99.90;;;;;;5001747;28;206455;-73
2023/03/27 02:12:49;;;;;;;;;;;2.30;99.90;;;;;;5068061;28;19924;-73
2023/03/27 02:15:17;;;;;;;;;;;2.30;99.90;;;;;;5014399;28;206652;-73
2023/03/27 02:17:46;;;;;;;;;;;2.30;99.90;;;;;;5056908;28;19928;-72
2023/03/27 02:20:16;;;;;;;;;;;2.20;99.90;;;;;;5002806;28;80148;-72
2023/03/27 02:22:44;;;;;;;;;;;2.20;99.90;;;;;;5061229;28;19939;-72
2023/03/27 02:25:19;;;;;;;;;;;2.20;99.90;;;;;;4997991;28;207411;-72
2023/03/27 02:27:46;;;;;;;;;;;2.20;99.90;;;;;;5061654;28;20369;-72
2023/03/27 02:30:47;;;;;;;;;;;2.10;99.90;;;;;;5005882;28;209742;-72
2023/03/27 02:33:14;;;;;;;;;;;2.10;99.90;;;;;;5009021;28;20310;-71
2023/03/27 02:35:47;;;;;;;;;;;2.10;99.90;;;;;;4969944;28;206987;-72
2023/03/27 02:38:16;;;;;;;;;;;2.20;99.90;;;;;;5026425;28;19928;-72
2023/03/27 02:40:45;;;;;;;;;;;2.20;99.90;;;;;;4986364;28;248058;-71
2023/03/27 02:43:15;;;;;;;;;;;2.20;99.90;;;;;;5028836;28;20401;-72
2023/03/27 02:45:51;;;;;;;;;;;2.30;99.90;;;;;;4996747;28;100574;-70
2023/03/27 02:48:21;;;;;;;;;;;2.50;99.90;;;;;;5042717;28;20289;-70
2023/03/27 02:50:52;;;;;;;;;;;2.80;99.90;;;;;;4966578;28;204070;-71
2023/03/27 02:53:21;;;;;;;;;;;2.80;99.90;;;;;;5048278;28;19921;-71
2023/03/27 02:55:50;;;;;;;;;;;2.90;99.90;;;;;;4979514;28;207148;-70
2023/03/27 02:58:18;;;;;;;;;;;2.90;99.90;;;;;;5041992;28;19924;-71
2023/03/27 03:00:47;;;;;;;;;;;2.90;99.90;;;;;;4978135;28;205364;-72
2023/03/27 03:03:19;;;;;;;;;;;2.90;99.90;;;;;;5040304;28;19921;-72
2023/03/27 03:05:45;;;;;;;;;;;2.90;99.90;;;;;;4971672;28;206762;-72
2023/03/27 03:08:13;;;;;;;;;;;2.90;99.90;;;;;;5056843;28;20056;-72
2023/03/27 03:10:45;;;;;;;;;;;2.90;99.90;;;;;;4995978;28;206224;-72
2023/03/27 03:13:11;;;;;;;;;;;2.80;99.90;;;;;;5043443;28;19924;-71
2023/03/27 03:15:37;;;;;;;;;;;2.80;99.90;;;;;;4987786;28;206946;-71
2023/03/27 03:18:03;;;;;;;;;;;2.70;99.90;;;;;;5059972;28;19951;-72
2023/03/27 03:20:29;;;;;;;;;;;2.60;99.90;;;;;;5015708;28;206872;-72
2023/03/27 03:22:56;;;;;;;;;;;2.60;99.90;;;;;;5065361;28;19935;-71
2023/03/27 03:25:22;;;;;;;;;;;2.50;99.90;;;;;;5022457;28;206253;-71
2023/03/27 03:27:48;;;;;;;;;;;2.50;99.90;;;;;;5073775;28;19920;-71
2023/03/27 03:30:14;;;;;;;;;;;2.40;99.90;;;;;;5009036;28;55580;-71
2023/03/27 03:32:40;;;;;;;;;;;2.30;99.90;;;;;;5060702;28;19928;-72
2023/03/27 03:35:08;;;;;;;;;;;2.30;99.90;;;;;;5015022;28;209301;-71
2023/03/27 03:37:37;;;;;;;;;;;2.20;99.90;;;;;;5068481;28;19935;-71
2023/03/27 03:40:10;;;;;;;;;;;2.20;99.90;;;;;;5009144;28;208335;-72
2023/03/27 03:42:43;;;;;;;;;;;2.10;99.90;;;;;;5060225;28;19924;-72
2023/03/27 03:45:10;;;;;;;;;;;2.00;99.90;;;;;;5017139;28;207339;-71
2023/03/27 03:47:36;;;;;;;;;;;2.00;99.90;;;;;;5065156;28;19924;-71
2023/03/27 03:50:02;;;;;;;;;;;1.90;99.90;;;;;;5001487;28;223505;-71
2023/03/27 03:52:28;;;;;;;;;;;1.80;99.90;;;;;;5069915;28;19924;-72
2023/03/27 03:54:54;;;;;;;;;;;1.70;99.90;;;;;;5028077;28;216253;-71
2023/03/27 03:57:20;;;;;;;;;;;1.70;99.90;;;;;;5081527;28;20019;-71
2023/03/27 03:59:47;;;;;;;;;;;1.60;99.90;;;;;;5017606;28;209071;-71
2023/03/27 04:02:27;;;;;;;;;;;1.60;99.90;;;;;;5072381;28;19935;-71
2023/03/27 04:04:53;;;;;;;;;;;1.50;99.90;;;;;;4976451;28;208522;-71
2023/03/27 04:07:22;;;;;;;;;;;1.50;99.90;;;;;;5053885;28;19920;-70
2023/03/27 04:09:49;;;;;;;;;;;1.50;99.90;;;;;;5005299;28;209428;-71
2023/03/27 04:12:15;;;;;;;;;;;1.50;99.90;;;;;;5063577;28;20411;-71
2023/03/27 04:14:42;;;;;;;;;;;1.50;99.90;;;;;;5012207;28;208139;-70
2023/03/27 04:17:08;;;;;;;;;;;1.60;99.90;;;;;;5065542;28;19924;-70
2023/03/27 04:19:34;;;;;;;;;;;1.60;99.90;;;;;;5009994;28;208315;-71
2023/03/27 04:22:03;;;;;;;;;;;1.60;99.90;;;;;;5050875;28;19924;-71
2023/03/27 04:24:29;;;;;;;;;;;1.70;99.90;;;;;;5017679;28;206543;-70
2023/03/27 04:26:57;;;;;;;;;;;1.80;99.90;;;;;;5027970;28;19970;-70
2023/03/27 04:29:23;;;;;;;;;;;1.90;99.90;;;;;;5015372;28;212868;-71
2023/03/27 04:31:49;;;;;;;;;;;2.00;99.90;;;;;;5054041;28;19931;-70
2023/03/27 04:34:19;;;;;;;;;;;2.10;99.90;;;;;;4989497;28;209293;-70
2023/03/27 04:36:45;;;;;;;;;;;2.10;99.90;;;;;;5070136;28;20297;-70
2023/03/27 04:39:11;;;;;;;;;;;2.10;99.90;;;;;;5003364;28;212861;-71
2023/03/27 04:41:37;;;;;;;;;;;2.10;99.90;;;;;;5052996;28;20389;-71
2023/03/27 04:44:04;;;;;;;;;;;2.10;99.90;;;;;;5011753;28;210569;-71
2023/03/27 04:46:30;;;;;;;;;;;2.10;99.90;;;;;;5069333;28;19947;-71
2023/03/27 04:48:56;;;;;;;;;;;2.20;99.90;;;;;;4997618;28;209276;-69
2023/03/27 04:51:25;;;;;;;;;;;2.20;99.90;;;;;;5053964;28;19920;-70
2023/03/27 04:53:51;;;;;;;;;;;2.10;99.90;;;;;;5002173;28;207986;-70
2023/03/27 04:56:17;;;;;;;;;;;2.10;99.90;;;;;;5073956;28;19925;-71
2023/03/27 04:58:45;;;;;;;;;;;2.00;99.90;;;;;;5049771;28;212713;-70
2023/03/27 05:01:11;;;;;;;;;;;2.00;99.90;;;;;;5023794;28;19928;-70
2023/03/27 05:03:39;;;;;;;;;;;1.90;99.90;;;;;;5062176;28;19920;-70
2023/03/27 05:06:05;;;;;;;;;;;1.90;99.90;;;;;;4996895;28;251647;-71
2023/03/27 05:08:31;;;;;;;;;;;1.90;99.90;;;;;;5066756;28;19931;-70
2023/03/27 05:10:57;;;;;;;;;;;1.80;99.90;;;;;;5022124;28;207494;-71
2023/03/27 05:13:23;;;;;;;;;;;1.80;99.90;;;;;;5059371;28;19947;-70
2023/03/27 05:15:49;;;;;;;;;;;1.80;99.90;;;;;;4992610;28;174366;-71
2023/03/27 05:18:15;;;;;;;;;;;1.80;99.90;;;;;;5060990;28;19932;-71
2023/03/27 05:20:42;;;;;;;;;;;1.80;99.90;;;;;;5010609;28;207855;-71
2023/03/27 05:23:09;;;;;;;;;;;1.90;99.90;;;;;;5068729;28;19928;-70
2023/03/27 05:25:35;;;;;;;;;;;1.90;99.90;;;;;;5018748;28;208742;-70
2023/03/27 05:28:01;;;;;;;;;;;1.90;99.90;;;;;;5060419;28;19935;-70
2023/03/27 05:30:27;;;;;;;;;;;1.90;99.90;;;;;;5000635;28;206165;-70
2023/03/27 05:32:57;;;;;;;;;;;1.90;99.90;;;;;;5059027;28;20416;-69
2023/03/27 05:35:24;;;;;;;;;;;1.90;99.90;;;;;;5000794;28;209424;-70
2023/03/27 05:37:51;;;;;;;;;;;1.90;99.90;;;;;;5055952;28;19928;-70
2023/03/27 05:40:21;;;;;;;;;;;2.00;99.90;;;;;;5029873;28;212624;-70
2023/03/27 05:42:47;;;;;;;;;;;2.00;99.90;;;;;;5061080;28;20271;-70
2023/03/27 05:45:13;;;;;;;;;;;2.00;99.90;;;;;;5016008;28;215191;-70
2023/03/27 05:47:58;;;;;;;;;;;2.00;99.90;;;;;;5061800;28;19924;-70
2023/03/27 05:50:27;;;;;;;;;;;2.10;99.90;;;;;;5004092;28;208948;-70
2023/03/27 05:52:53;;;;;;;;;;;2.10;99.90;;;;;;5065690;28;19954;-70
2023/03/27 05:55:19;;;;;;;;;;;2.10;99.90;;;;;;4980801;28;212694;-70
2023/03/27 05:57:45;;;;;;;;;;;2.30;99.90;;;;;;5063239;28;20567;-71
2023/03/27 06:00:15;;;;;;;;;;;2.30;99.90;;;;;;5025421;28;83518;-71
2023/03/27 06:02:45;;;;;;;;;;;2.30;99.90;;;;;;5066391;28;20305;-72
2023/03/27 06:05:15;;;;;;;;;;;2.30;99.90;;;;;;4983753;28;207616;-72
2023/03/27 06:07:41;;;;;;;;;;;2.20;99.90;;;;;;5060179;28;19931;-72
2023/03/27 06:10:08;;;;;;;;;;;2.20;99.90;;;;;;5007629;28;207488;-73
2023/03/27 06:12:35;;;;;;;;;;;2.20;99.90;;;;;;5066551;28;19920;-75
2023/03/27 06:15:06;;;;;;;;;;;2.20;99.90;;;;;;5019005;28;209933;-73
2023/03/27 06:17:37;;;;;;;;;;;2.30;99.90;;;;;;5051035;28;19930;-72
2023/03/27 06:20:10;;;;;;;;;;;2.30;99.90;;;;;;5004822;28;212662;-72
2023/03/27 06:22:49;;;;;;;;;;;2.30;99.90;;;;;;5051659;28;19936;-74
2023/03/27 06:25:15;;;;;;;;;;;2.30;99.90;;;;;;5026190;28;209710;-75
2023/03/27 06:27:42;;;;;;;;;;;2.30;99.90;;;;;;5062984;28;19923;-73
2023/03/27 06:30:09;;;;;;;;;;;2.20;99.90;;;;;;5012594;28;218555;-74
2023/03/27 06:32:35;;;;;;;;;;;2.20;99.90;;;;;;5060932;28;19933;-74
2023/03/27 06:35:02;;;;;;;;;;;2.20;99.90;;;;;;5013116;28;102427;-74
2023/03/27 06:37:32;;;;;;;;;;;2.20;99.90;;;;;;5054870;28;19943;-73
2023/03/27 06:39:58;;;;;;;;;;;2.20;99.90;;;;;;5011613;28;209726;-73
2023/03/27 06:42:24;;;;;;;;;;;2.30;99.90;;;;;;5065348;28;19928;-72
2023/03/27 06:44:50;;;;;;;;;;;2.30;99.90;;;;;;5009805;28;227926;-73
2023/03/27 06:47:17;;;;;;;;;;;2.30;99.90;;;;;;5072703;28;20351;-73
2023/03/27 06:49:46;;;;;;;;;;;2.40;99.90;;;;;;5028612;28;209660;-73
2023/03/27 06:52:13;;;;;;;;;;;2.80;99.90;;;;;;5071724;28;19924;-75
2023/03/27 06:54:38;;;;;;;;;;;3.50;99.90;;;;;;5014928;28;209211;-74
2023/03/27 06:57:05;;;;;;;;;;;4.10;99.90;;;;;;5067018;28;20316;-75
2023/03/27 06:59:31;;;;;;;;;;;4.50;99.90;;;;;;5015806;28;210174;-73
2023/03/27 07:01:56;;;;;;;;;;;4.80;99.90;;;;;;5073666;28;19938;-72
2023/03/27 07:04:22;;;;;;;;;;;5.00;99.90;;;;;;5002383;28;208823;-73
2023/03/27 07:06:49;;;;;;;;;;;4.50;99.90;;;;;;5066569;28;19927;-73
2023/03/27 07:09:15;;;;;;;;;;;4.40;99.90;;;;;;5019961;28;208752;-73
2023/03/27 07:11:41;;;;;;;;;;;5.00;99.90;;;;;;5056411;28;19921;-73
2023/03/27 07:14:07;;;;;;;;;;;5.50;99.90;;;;;;5012957;28;208589;-73
2023/03/27 07:16:33;;;;;;;;;;;5.80;99.90;;;;;;5059274;28;19920;-73
2023/03/27 07:18:59;;;;;;;;;;;6.20;99.90;;;;;;5008174;28;205387;-74
2023/03/27 07:21:25;;;;;;;;;;;6.20;99.90;;;;;;5076516;28;19925;-73
2023/03/27 07:23:51;;;;;;;;;;;6.50;99.90;;;;;;5003376;28;207283;-73
2023/03/27 07:26:17;;;;;;;;;;;6.60;99.90;;;;;;5045670;28;19936;-74
2023/03/27 07:28:43;;;;;;;;;;;6.70;99.90;;;;;;5046513;28;212000;-71
2023/03/27 07:31:10;;;;;;;;;;;6.80;99.90;;;;;;5033357;28;208654;-74
2023/03/27 07:33:37;;;;;;;;;;;6.90;99.90;;;;;;5067282;28;19933;-73
2023/03/27 07:36:05;;;;;;;;;;;7.00;99.90;;;;;;5020971;28;171160;-74
2023/03/27 07:38:32;;;;;;;;;;;7.00;99.90;;;;;;5063848;28;20397;-74
2023/03/27 07:41:04;;;;;;;;;;;7.30;99.90;;;;;;5009619;28;204874;-74
2023/03/27 07:43:30;;;;;;;;;;;7.20;99.90;;;;;;5064026;28;19928;-74
2023/03/27 07:45:56;;;;;;;;;;;7.30;99.90;;;;;;4988185;28;210389;-75
2023/03/27 07:48:22;;;;;;;;;;;7.30;99.90;;;;;;5063916;28;19933;-74
2023/03/27 07:50:48;;;;;;;;;;;7.60;99.90;;;;;;5008745;28;211935;-74
2023/03/27 07:53:14;;;;;;;;;;;7.80;99.90;;;;;;5062420;28;19931;-74
2023/03/27 07:55:40;;;;;;;;;;;7.50;99.90;;;;;;5002480;28;206074;-74
2023/03/27 07:58:06;;;;;;;;;;;6.10;99.90;;;;;;5063710;28;19921;-75
2023/03/27 08:00:34;;;;;;;;;;;4.90;99.90;;;;;;4999133;28;210836;-75
2023/03/27 08:03:05;;;;;;;;;;;4.10;99.90;;;;;;5058658;28;19924;-74
2023/03/27 08:05:31;;;;;;;;;;;3.60;99.90;;;;;;4989510;28;211165;-73
2023/03/27 08:07:57;;;;;;;;;;;3.40;99.90;;;;;;5065500;28;20308;-75
2023/03/27 08:10:23;;;;;;;;;;;3.40;99.90;;;;;;5022775;28;225860;-74
2023/03/27 08:12:49;;;;;;;;;;;3.40;99.90;;;;;;5065266;28;19927;-74
2023/03/27 08:15:15;;;;;;;;;;;3.90;99.90;;;;;;5012780;28;209083;-75
2023/03/27 08:17:41;;;;;;;;;;;4.00;99.90;;;;;;5065248;28;19928;-75
2023/03/27 08:20:14;;;;;;;;;;;4.10;99.90;;;;;;5011949;28;208668;-73
2023/03/27 08:22:40;;;;;;;;;;;4.40;99.90;;;;;;5065664;28;19947;-73
2023/03/27 08:25:08;;;;;;;;;;;4.70;99.90;;;;;;4989268;28;209876;-75
2023/03/27 08:27:34;;;;;;;;;;;5.30;99.90;;;;;;5059756;28;19928;-73
2023/03/27 08:30:01;;;;;;;;;;;5.70;99.90;;;;;;5011499;28;206896;-74
2023/03/27 08:32:27;;;;;;;;;;;6.10;99.90;;;;;;5069841;28;19920;-75
2023/03/27 08:34:53;;;;;;;;;;;6.30;99.90;;;;;;5016614;28;206715;-81
2023/03/27 08:37:19;;;;;;;;;;;6.30;99.90;;;;;;5069760;28;19924;-76
2023/03/27 08:39:45;;;;;;;;;;;6.40;99.90;;;;;;5009609;28;217607;-78
2023/03/27 08:42:16;;;;;;;;;;;6.50;99.90;;;;;;5058391;28;19928;-74
2023/03/27 08:44:43;;;;;;;;;;;6.70;99.90;;;;;;5001663;28;209580;-75
2023/03/27 08:47:11;;;;;;;;;;;7.00;99.90;;;;;;5056567;28;19928;-76
2023/03/27 08:49:40;;;;;;;;;;;6.80;99.90;;;;;;5003534;28;206019;-75
2023/03/27 08:52:18;;;;;;;;;;;7.10;99.90;;;;;;5061938;28;19944;-80
2023/03/27 08:54:47;;;;;;;;;;;7.50;99.90;;;;;;5028358;28;127966;-76
2023/03/27 08:57:17;;;;;;;;;;;8.20;99.90;;;;;;5067024;28;19920;-76
2023/03/27 08:59:43;;;;;;;;;;;8.50;99.90;;;;;;5008840;28;206889;-75
2023/03/27 09:02:15;;;;;;;;;;;8.30;99.90;;;;;;5058188;28;19920;-75
2023/03/27 09:04:47;;;;;;;;;;;7.70;99.90;;;;;;5003258;28;206571;-75
2023/03/27 09:07:27;;;;;;;;;;;7.70;99.90;;;;;;5054171;28;19940;-74
2023/03/27 09:09:58;;;;;;;;;;;7.60;99.90;;;;;;5011543;28;209457;-74
2023/03/27 09:12:35;;;;;;;;;;;7.40;99.90;;;;;;5051929;28;19928;-73
2023/03/27 09:15:01;;;;;;;;;;;6.50;99.90;;;;;;5013246;28;207257;-73
2023/03/27 09:17:32;;;;;;;;;;;6.20;99.90;;;;;;5066471;28;20506;-74
2023/03/27 09:20:04;;;;;;;;;;;6.70;99.90;;;;;;5012424;28;216053;-74
2023/03/27 09:22:35;;;;;;;;;;;7.10;99.90;;;;;;5060110;28;19925;-75
2023/03/27 09:25:07;;;;;;;;;;;7.60;99.90;;;;;;5015192;28;215020;-76
2023/03/27 09:27:33;;;;;;;;;;;8.10;99.90;;;;;;5070303;28;20385;-78
2023/03/27 09:30:09;;;;;;;;;;;8.60;99.90;;;;;;5006518;28;205974;-74
2023/03/27 09:32:36;;;;;;;;;;;9.30;99.90;;;;;;5058802;28;19925;-73
2023/03/27 09:35:03;;;;;;;;;;;9.30;99.90;;;;;;5006791;28;207495;-73
2023/03/27 09:37:29;;;;;;;;;;;9.40;99.90;;;;;;5052819;28;19921;-76
2023/03/27 09:39:58;;;;;;;;;;;9.90;99.90;;;;;;5014968;28;207624;-75
2023/03/27 09:42:27;;;;;;;;;;;10.90;99.30;;;;;;5057633;28;19920;-73
2023/03/27 09:44:55;;;;;;;;;;;10.70;98.30;;;;;;5024574;28;203838;-75
2023/03/27 09:47:30;;;;;;;;;;;10.40;97.90;;;;;;5074583;28;19920;-75
2023/03/27 09:49:59;;;;;;;;;;;8.80;98.90;;;;;;5017794;28;212613;-74
2023/03/27 09:52:32;;;;;;;;;;;10.10;99.90;;;;;;5066187;28;19931;-75
2023/03/27 09:54:58;;;;;;;;;;;9.20;98.50;;;;;;5019841;28;207899;-74
2023/03/27 09:57:32;;;;;;;;;;;9.00;98.80;;;;;;5070970;28;19952;-73
2023/03/27 10:00:00;;;;;;;;;;;9.00;99.50;;;;;;5002787;28;215256;-72
2023/03/27 10:02:27;;;;;;;;;;;8.40;99.00;;;;;;5059609;28;19924;-77
2023/03/27 10:05:10;;;;;;;;;;;7.40;99.90;;;;;;4992851;28;212498;-73
2023/03/27 10:07:38;;;;;;;;;;;7.10;99.90;;;;;;5058204;28;19925;-73
2023/03/27 10:10:05;;;;;;;;;;;6.80;99.90;;;;;;5017246;28;175779;-73
2023/03/27 10:12:33;;;;;;;;;;;8.20;99.90;;;;;;5069535;28;19931;-72
2023/03/27 10:14:59;;;;;;;;;;;8.00;99.90;;;;;;5007242;28;210092;-74
2023/03/27 10:17:25;;;;;;;;;;;7.60;99.90;;;;;;5064616;28;19924;-74
2023/03/27 10:19:53;;;;;;;;;;;7.20;99.90;;;;;;5019021;28;208958;-74
2023/03/27 10:22:26;;;;;;;;;;;7.00;99.90;;;;;;5066563;28;19924;-73
2023/03/27 10:24:52;;;;;;;;;;;7.10;99.90;;;;;;5009649;28;207142;-74
2023/03/27 10:27:20;;;;;;;;;;;7.30;99.30;;;;;;5075983;28;19925;-73
2023/03/27 10:29:46;;;;;;;;;;;7.30;99.90;;;;;;5013054;28;210501;-74
2023/03/27 10:32:12;;;;;;;;;;;8.70;98.70;;;;;;5062267;28;19931;-74
2023/03/27 10:34:38;;;;;;;;;;;9.50;97.50;;;;;;5003401;28;217678;-75
2023/03/27 10:37:18;;;;;;;;;;;9.60;96.60;;;;;;5062729;28;19928;-73
2023/03/27 10:39:44;;;;;;;;;;;9.40;97.10;;;;;;5006348;28;208436;-73
2023/03/27 10:42:12;;;;;;;;;;;8.70;97.30;;;;;;5073803;28;20375;-73
2023/03/27 10:44:38;;;;;;;;;;;8.20;98.10;;;;;;4998158;28;75595;-73
2023/03/27 10:47:04;;;;;;;;;;;9.40;98.20;;;;;;5065281;28;20323;-73
2023/03/27 10:49:31;;;;;;;;;;;10.60;96.50;;;;;;5011075;28;207750;-74
2023/03/27 10:51:57;;;;;;;;;;;11.20;95.40;;;;;;5061531;28;19920;-72
2023/03/27 10:54:28;;;;;;;;;;;11.90;94.40;;;;;;5009193;28;206792;-74
2023/03/27 10:57:03;;;;;;;;;;;10.20;94.10;;;;;;5072384;28;19940;-72
2023/03/27 10:59:38;;;;;;;;;;;10.10;95.10;;;;;;5011789;28;207666;-72
2023/03/27 11:02:11;;;;;;;;;;;9.20;96.70;;;;;;5066176;28;19954;-72
2023/03/27 11:05:07;;;;;;;;;;;8.80;96.70;;;;;;4994468;28;207544;-73
2023/03/27 11:07:48;;;;;;;;;;;8.60;97.10;;;;;;5042641;28;19927;-73
2023/03/27 11:10:17;;;;;;;;;;;9.60;96.60;;;;;;5012313;28;208207;-73
2023/03/27 11:12:47;;;;;;;;;;;10.80;96.10;;;;;;5061477;28;19928;-73
2023/03/27 11:15:16;;;;;;;;;;;10.50;94.80;;;;;;5002876;28;208409;-72
2023/03/27 11:17:54;;;;;;;;;;;10.80;95.80;;;;;;5054321;28;19921;-72
2023/03/27 11:20:25;;;;;;;;;;;12.00;95.20;;;;;;5006168;28;207826;-72
2023/03/27 11:22:58;;;;;;;;;;;12.90;94.00;;;;;;5055843;28;19925;-72
2023/03/27 11:25:31;;;;;;;;;;;13.40;92.60;;;;;;5008834;28;113769;-74
2023/03/27 11:27:57;;;;;;;;;;;12.00;92.30;;;;;;5025542;28;20390;-74
2023/03/27 11:30:23;;;;;;;;;;;10.80;94.00;;;;;;5009663;28;207587;-75
2023/03/27 11:32:58;;;;;;;;;;;10.00;95.80;;;;;;5059474;28;20389;-73
2023/03/27 11:35:29;;;;;;;;;;;10.10;96.90;;;;;;4988489;28;210254;-75
2023/03/27 11:38:01;;;;;;;;;;;9.40;96.70;;;;;;5055517;28;19925;-76
2023/03/27 11:40:29;;;;;;;;;;;9.60;96.90;;;;;;5020156;28;208701;-76
2023/03/27 11:42:55;;;;;;;;;;;9.40;97.40;;;;;;5066219;28;19924;-73
2023/03/27 11:45:26;;;;;;;;;;;8.90;98.80;;;;;;4999899;28;206737;-73
2023/03/27 11:47:56;;;;;;;;;;;8.50;99.30;;;;;;5065174;28;19920;-73
2023/03/27 11:50:42;;;;;;;;;;;9.90;99.80;;;;;;5009508;28;206009;-72
2023/03/27 11:53:11;;;;;;;;;;;11.00;99.10;;;;;;5043491;28;20642;-73
2023/03/27 11:55:49;;;;;;;;;;;10.40;98.10;;;;;;5035575;28;208713;-72
2023/03/27 11:58:20;;;;;;;;;;;9.70;98.30;;;;;;5069992;28;19924;-72
2023/03/27 12:00:46;;;;;;;;;;;9.10;98.80;;;;;;5014489;28;217863;-72
2023/03/27 12:03:27;;;;;;;;;;;8.90;99.40;;;;;;5059756;28;20024;-73
2023/03/27 12:05:54;;;;;;;;;;;10.20;99.80;;;;;;5007812;28;205493;-72
2023/03/27 12:08:20;;;;;;;;;;;10.80;97.30;;;;;;5064608;28;19921;-73
2023/03/27 12:10:48;;;;;;;;;;;9.90;97.10;;;;;;5003601;28;210654;-73
2023/03/27 12:13:34;;;;;;;;;;;9.00;97.20;;;;;;5061561;28;20575;-72
2023/03/27 12:16:16;;;;;;;;;;;8.00;98.70;;;;;;5017795;28;207642;-72
2023/03/27 12:18:48;;;;;;;;;;;8.80;99.20;;;;;;5044162;28;208789;-72
2023/03/27 12:21:24;;;;;;;;;;;9.20;98.40;;;;;;5007845;28;20336;-70
2023/03/27 12:23:58;;;;;;;;;;;9.70;98.20;;;;;;5012949;28;208098;-73
2023/03/27 12:26:33;;;;;;;;;;;9.70;96.60;;;;;;5040781;28;19929;-71
2023/03/27 12:28:59;;;;;;;;;;;9.40;95.50;;;;;;5029312;28;210295;-71
2023/03/27 12:31:47;;;;;;;;;;;9.20;94.80;;;;;;5062630;28;19921;-70
2023/03/27 12:34:25;;;;;;;;;;;8.80;95.60;;;;;;5007520;28;206639;-70
2023/03/27 12:36:52;;;;;;;;;;;8.60;95.30;;;;;;5053064;28;19925;-70
2023/03/27 12:39:20;;;;;;;;;;;9.80;94.90;;;;;;5009127;28;212222;-71
2023/03/27 12:41:46;;;;;;;;;;;9.90;94.10;;;;;;5062228;28;19937;-72
2023/03/27 12:44:13;;;;;;;;;;;9.80;94.10;;;;;;5009433;28;216888;-74
2023/03/27 12:46:40;;;;;;;;;;;9.60;94.20;;;;;;5059683;28;19921;-72
2023/03/27 12:49:12;;;;;;;;;;;9.90;94.90;;;;;;5001472;28;207962;-70
2023/03/27 12:51:50;;;;;;;;;;;11.10;94.40;;;;;;5067828;28;19952;-73
2023/03/27 12:54:34;;;;;;;;;;;10.50;93.40;;;;;;5002680;28;215985;-72
2023/03/27 12:57:07;;;;;;;;;;;10.50;93.60;;;;;;5058237;28;19920;-73
2023/03/27 12:59:37;;;;;;;;;;;9.90;94.40;;;;;;5025278;28;206170;-73
2023/03/27 13:02:03;;;;;;;;;;;10.30;95.00;;;;;;5057569;28;19928;-71
2023/03/27 13:04:44;;;;;;;;;;;10.10;95.60;;;;;;5003589;28;215509;-70
2023/03/27 13:07:35;;;;;;;;;;;9.40;95.10;;;;;;5060452;28;19925;-72
2023/03/27 13:10:19;;;;;;;;;;;9.40;95.50;;;;;;5004564;28;207233;-71
2023/03/27 13:13:04;;;;;;;;;;;9.10;95.60;;;;;;5059328;28;19940;-73
2023/03/27 13:15:48;;;;;;;;;;;9.00;96.70;;;;;;5007490;28;206743;-73
2023/03/27 13:18:14;;;;;;;;;;;9.00;97.00;;;;;;5065401;28;19928;-73
2023/03/27 13:20:50;;;;;;;;;;;9.10;96.90;;;;;;4994926;28;195012;-74
2023/03/27 13:23:22;;;;;;;;;;;9.70;96.60;;;;;;5068629;28;19951;-73
2023/03/27 13:26:15;;;;;;;;;;;10.10;97.00;;;;;;4993244;28;204854;-74
2023/03/27 13:28:47;;;;;;;;;;;9.50;96.10;;;;;;5041101;28;198715;-72
2023/03/27 13:31:33;;;;;;;;;;;9.40;96.30;;;;;;5015222;28;35002;-74
2023/03/27 13:34:09;;;;;;;;;;;9.70;96.20;;;;;;4998300;28;207073;-74
2023/03/27 13:36:39;;;;;;;;;;;10.20;95.90;;;;;;5060338;28;19917;-75
2023/03/27 13:39:07;;;;;;;;;;;10.80;95.70;;;;;;5007505;28;207948;-75
2023/03/27 13:41:36;;;;;;;;;;;10.40;95.00;;;;;;5064221;28;19928;-73
2023/03/27 13:44:04;;;;;;;;;;;9.90;96.40;;;;;;5015740;28;207408;-74
2023/03/27 13:46:31;;;;;;;;;;;10.30;95.20;;;;;;5058618;28;19927;-74
2023/03/27 13:49:06;;;;;;;;;;;9.60;95.40;;;;;;5015827;28;207428;-75
2023/03/27 13:51:57;;;;;;;;;;;9.10;95.90;;;;;;5078018;28;19920;-74
2023/03/27 13:54:31;;;;;;;;;;;8.90;96.20;;;;;;5022828;28;204874;-74
2023/03/27 13:56:59;;;;;;;;;;;10.00;94.70;;;;;;5072331;28;19949;-73
2023/03/27 13:59:44;;;;;;;;;;;9.80;94.50;;;;;;5020056;28;208671;-74
2023/03/27 14:02:13;;;;;;;;;;;10.10;96.20;;;;;;5054289;28;19929;-74
2023/03/27 14:04:48;;;;;;;;;;;9.60;97.70;;;;;;5000616;28;212255;-73
2023/03/27 14:07:14;;;;;;;;;;;8.90;98.70;;;;;;5049834;28;19927;-73
2023/03/27 14:09:52;;;;;;;;;;;8.60;99.30;;;;;;5005665;28;211183;-73
2023/03/27 14:12:22;;;;;;;;;;;10.10;98.70;;;;;;5052661;28;19929;-73
2023/03/27 14:14:57;;;;;;;;;;;10.60;97.90;;;;;;5013404;28;208648;-73
2023/03/27 14:17:44;;;;;;;;;;;10.00;97.80;;;;;;5069265;28;19927;-72
2023/03/27 14:20:13;;;;;;;;;;;9.90;98.40;;;;;;4969135;28;102900;-73
2023/03/27 14:22:55;;;;;;;;;;;11.20;98.00;;;;;;5055388;28;19935;-74
2023/03/27 14:25:24;;;;;;;;;;;12.00;96.20;;;;;;5001410;28;207783;-73
2023/03/27 14:27:54;;;;;;;;;;;12.30;94.20;;;;;;5071360;28;19924;-73
2023/03/27 14:30:21;;;;;;;;;;;11.90;93.30;;;;;;5021985;28;207009;-73
2023/03/27 14:32:48;;;;;;;;;;;11.50;94.30;;;;;;5066212;28;19924;-73
2023/03/27 14:35:22;;;;;;;;;;;10.90;94.50;;;;;;5022066;28;209630;-72
2023/03/27 14:37:54;;;;;;;;;;;9.90;95.30;;;;;;5068439;28;19931;-72